Portada
METAR-TAF:

METAR-TAF

Aeroports :

Salamanca, Espanya

latitud: 40-57N, longitud: 005-30W, altitud: 793 m

Observació

L'informe es va fer fa 11 minuts, a les 22:30 UTC
Vent 4 kt del Sud-Oest
Temperatura 11°C
Humitat 66%
Pressió 1018 hPa
Visibilitat 10 km o més
sense núvols per sota de 1500 mi sense presència de cumulonimbus.

METAR: LESA 052230Z AUTO 23004KT CAVOK 11/05 Q1018

Hora: 00:41 (22:41 UTC)

Pronòstic

L'informe es va fer fa 2 hores i 41 minuts, a les 20:00 UTC
Pronòstic vàlid del 05 a les 21 UTC al 06 a les 21 UTC
Vent 6 kt del Nord/Nord-Oest
Visibilitat 10 km o més
sense núvols per sota de 1500 mi sense presència de cumulonimbus.
Probabilitat 30% :
Temporalment
l' 06 a les 04 UTC al 06 a les 08 UTC
Visibilitat: 1500 m
Cel ennuvolat a una alçada de 800 ft
boirina
Evolucionant progressivament
l' 06 a les 11 UTC al 06 a les 13 UTC
Vent 12 kt del Oest

TAF: LESA 052000Z 0521/0621 33006KT CAVOK TX23/0615Z TN06/0605Z PROB30 TEMPO 0604/0608 1500 BR BKN008 BECMG 0611/0613 27012KT

Observacions i pronòstics meteorològics de més de 4000 aeroports (METAR i TAF).

Les estacions disponibles són els punts grocs i vermells al mapa.

Posi el ratolí al punt desitjat per veure el nom de l'estació.

Feu clic per veure les observacions i els pronòstics meteorològics.

Per canviar el mapa: feu clic els botons verds amb una creu de color negre per apropar; al botó verd amb un guió per allunyar la imatge; o en les fletxes verdes per a mapes adjacents.


METAR-TAF: